sensor_id;sensor_type;location;lat;lon;timestamp;pressure;altitude;pressure_sealevel;temperature;humidity
51315;BME280;65787;59.922;10.742;2023-03-03T00:01:10;101445.97;;;27.24;19.73
51315;BME280;65787;59.922;10.742;2023-03-03T00:03:36;101432.75;;;27.21;19.67
51315;BME280;65787;59.922;10.742;2023-03-03T00:06:03;101451.25;;;27.16;19.86
51315;BME280;65787;59.922;10.742;2023-03-03T00:08:28;101452.63;;;27.18;19.44
51315;BME280;65787;59.922;10.742;2023-03-03T00:10:54;101451.53;;;27.14;19.61
51315;BME280;65787;59.922;10.742;2023-03-03T00:13:25;101453.75;;;27.17;19.66
51315;BME280;65787;59.922;10.742;2023-03-03T20:18:09;100510.53;;;23.69;23.95
51315;BME280;65787;59.922;10.742;2023-03-03T20:20:56;100513.00;;;24.31;23.67
51315;BME280;65787;59.922;10.742;2023-03-03T20:26:43;100508.44;;;24.90;22.34
51315;BME280;65787;59.922;10.742;2023-03-03T20:29:44;100496.09;;;24.92;22.74
51315;BME280;65787;59.922;10.742;2023-03-03T20:38:22;100508.84;;;25.37;22.29
51315;BME280;65787;59.922;10.742;2023-03-03T20:46:49;100515.09;;;25.66;21.83
51315;BME280;65787;59.922;10.742;2023-03-03T20:52:01;100514.94;;;25.82;21.37
51315;BME280;65787;59.922;10.742;2023-03-03T20:54:36;100522.09;;;26.02;20.91
51315;BME280;65787;59.922;10.742;2023-03-03T20:57:18;100512.56;;;25.94;21.05
51315;BME280;65787;59.922;10.742;2023-03-03T21:05:11;100530.06;;;26.22;21.17
51315;BME280;65787;59.922;10.742;2023-03-03T21:07:50;100539.09;;;26.28;21.10
51315;BME280;65787;59.922;10.742;2023-03-03T21:10:20;100532.53;;;26.24;20.98
51315;BME280;65787;59.922;10.742;2023-03-03T21:12:51;100540.59;;;26.39;20.75
51315;BME280;65787;59.922;10.742;2023-03-03T21:15:30;100539.16;;;26.42;20.60
51315;BME280;65787;59.922;10.742;2023-03-03T21:17:58;100546.69;;;26.36;21.04
51315;BME280;65787;59.922;10.742;2023-03-03T21:20:31;100540.88;;;26.38;20.90
51315;BME280;65787;59.922;10.742;2023-03-03T21:22:59;100528.00;;;26.33;20.64
51315;BME280;65787;59.922;10.742;2023-03-03T21:25:51;100534.84;;;26.55;20.41
51315;BME280;65787;59.922;10.742;2023-03-03T21:31:10;100543.69;;;26.52;20.36
51315;BME280;65787;59.922;10.742;2023-03-03T21:33:43;100554.72;;;26.52;20.60
51315;BME280;65787;59.922;10.742;2023-03-03T21:36:10;100542.06;;;26.51;20.33
51315;BME280;65787;59.922;10.742;2023-03-03T21:38:37;100452.16;;;25.84;20.16
51315;BME280;65787;59.922;10.742;2023-03-03T21:41:04;100539.38;;;26.45;20.72
51315;BME280;65787;59.922;10.742;2023-03-03T21:43:45;100537.38;;;26.51;20.31
51315;BME280;65787;59.922;10.742;2023-03-03T21:46:11;100548.56;;;26.60;20.33
51315;BME280;65787;59.922;10.742;2023-03-03T21:48:41;100542.28;;;26.54;20.24
51315;BME280;65787;59.922;10.742;2023-03-03T21:51:10;100559.63;;;26.74;20.03
51315;BME280;65787;59.922;10.742;2023-03-03T21:53:39;100544.13;;;26.59;20.07
51315;BME280;65787;59.922;10.742;2023-03-03T21:56:05;100548.69;;;26.69;19.91
51315;BME280;65787;59.922;10.742;2023-03-03T21:58:30;100547.50;;;26.75;20.29
51315;BME280;65787;59.922;10.742;2023-03-03T22:00:56;100560.31;;;26.84;19.89
51315;BME280;65787;59.922;10.742;2023-03-03T22:03:21;100563.66;;;26.81;19.96
51315;BME280;65787;59.922;10.742;2023-03-03T22:05:48;100558.75;;;26.78;19.96
51315;BME280;65787;59.922;10.742;2023-03-03T22:08:14;100567.44;;;26.85;19.81
51315;BME280;65787;59.922;10.742;2023-03-03T22:10:46;100571.09;;;26.81;20.05
51315;BME280;65787;59.922;10.742;2023-03-03T22:13:15;100560.97;;;26.76;19.96
51315;BME280;65787;59.922;10.742;2023-03-03T22:15:41;100572.53;;;26.78;19.96
51315;BME280;65787;59.922;10.742;2023-03-03T22:18:06;100572.88;;;26.91;19.63
51315;BME280;65787;59.922;10.742;2023-03-03T22:20:32;100550.94;;;26.67;19.76
51315;BME280;65787;59.922;10.742;2023-03-03T22:22:57;100449.97;;;26.05;19.69
51315;BME280;65787;59.922;10.742;2023-03-03T22:25:22;100578.38;;;26.91;19.67
51315;BME280;65787;59.922;10.742;2023-03-03T22:27:48;100528.81;;;26.53;20.03
51315;BME280;65787;59.922;10.742;2023-03-03T22:30:14;100576.53;;;26.86;19.70
51315;BME280;65787;59.922;10.742;2023-03-03T22:32:39;100588.59;;;26.90;19.68
51315;BME280;65787;59.922;10.742;2023-03-03T22:35:05;100583.44;;;26.83;19.54
51315;BME280;65787;59.922;10.742;2023-03-03T22:37:30;100590.53;;;26.90;19.53
51315;BME280;65787;59.922;10.742;2023-03-03T22:39:56;100587.56;;;26.86;19.62
51315;BME280;65787;59.922;10.742;2023-03-03T22:42:21;100581.31;;;26.80;19.70
51315;BME280;65787;59.922;10.742;2023-03-03T22:44:49;100590.75;;;26.93;19.58
51315;BME280;65787;59.922;10.742;2023-03-03T22:47:14;100604.00;;;26.91;19.50
51315;BME280;65787;59.922;10.742;2023-03-03T22:49:39;100583.88;;;26.91;19.24
51315;BME280;65787;59.922;10.742;2023-03-03T22:52:05;100597.66;;;26.91;19.55
51315;BME280;65787;59.922;10.742;2023-03-03T22:54:30;100576.63;;;26.81;19.68
51315;BME280;65787;59.922;10.742;2023-03-03T22:56:55;100598.88;;;26.84;19.63
51315;BME280;65787;59.922;10.742;2023-03-03T22:59:21;100592.44;;;26.89;19.44
51315;BME280;65787;59.922;10.742;2023-03-03T23:01:50;100589.38;;;26.77;19.38
51315;BME280;65787;59.922;10.742;2023-03-03T23:04:15;100600.13;;;26.92;19.45
51315;BME280;65787;59.922;10.742;2023-03-03T23:06:40;100605.88;;;26.96;19.32
51315;BME280;65787;59.922;10.742;2023-03-03T23:09:07;100592.22;;;26.85;19.46
51315;BME280;65787;59.922;10.742;2023-03-03T23:11:33;100612.66;;;26.84;19.52
51315;BME280;65787;59.922;10.742;2023-03-03T23:13:58;100576.25;;;26.69;19.25
51315;BME280;65787;59.922;10.742;2023-03-03T23:16:24;100616.66;;;26.92;19.34
51315;BME280;65787;59.922;10.742;2023-03-03T23:18:49;100607.66;;;26.87;19.18
51315;BME280;65787;59.922;10.742;2023-03-03T23:21:14;100619.13;;;26.94;19.24
51315;BME280;65787;59.922;10.742;2023-03-03T23:23:41;100613.03;;;26.97;19.27
51315;BME280;65787;59.922;10.742;2023-03-03T23:26:06;100618.00;;;26.95;19.36
51315;BME280;65787;59.922;10.742;2023-03-03T23:28:32;100624.31;;;27.14;19.08
51315;BME280;65787;59.922;10.742;2023-03-03T23:30:57;100632.16;;;26.88;19.50
51315;BME280;65787;59.922;10.742;2023-03-03T23:33:22;100611.63;;;26.80;19.55
51315;BME280;65787;59.922;10.742;2023-03-03T23:35:48;100623.69;;;26.84;19.81
51315;BME280;65787;59.922;10.742;2023-03-03T23:38:14;100616.38;;;26.94;19.51
51315;BME280;65787;59.922;10.742;2023-03-03T23:40:42;100616.44;;;26.89;19.89
51315;BME280;65787;59.922;10.742;2023-03-03T23:43:08;100622.91;;;26.98;20.94
51315;BME280;65787;59.922;10.742;2023-03-03T23:45:33;100613.91;;;26.92;22.90
51315;BME280;65787;59.922;10.742;2023-03-03T23:47:59;100622.09;;;26.97;22.93
51315;BME280;65787;59.922;10.742;2023-03-03T23:50:24;100628.28;;;27.08;23.54
51315;BME280;65787;59.922;10.742;2023-03-03T23:52:50;100617.78;;;26.91;23.81
51315;BME280;65787;59.922;10.742;2023-03-03T23:55:15;100628.19;;;27.13;23.71
51315;BME280;65787;59.922;10.742;2023-03-03T23:57:41;100629.09;;;27.09;23.72
